createdAt,value
2019-05-10T00:01:26.059Z,15.30
2019-05-10T00:04:19.408Z,15.80
2019-05-10T00:07:12.971Z,15.90
2019-05-10T00:09:47.962Z,16.00
2019-05-10T00:12:43.134Z,15.70
2019-05-10T00:15:24.585Z,16.10
2019-05-10T00:18:05.875Z,15.80
2019-05-10T00:20:47.698Z,15.80
2019-05-10T00:23:25.305Z,15.80
2019-05-10T00:26:04.542Z,15.70
2019-05-10T00:28:44.335Z,15.80
2019-05-10T00:31:22.025Z,15.90
2019-05-10T00:41:57.468Z,15.80
2019-05-10T00:47:11.910Z,16.30
2019-05-10T00:49:49.698Z,16.20
2019-05-10T00:52:27.303Z,15.90
2019-05-10T00:55:17.763Z,16.00
2019-05-10T00:57:46.535Z,15.70
2019-05-10T01:00:26.789Z,16.20
2019-05-10T01:03:07.067Z,16.50
2019-05-10T01:05:46.098Z,16.70
2019-05-10T01:08:23.876Z,16.60
2019-05-10T01:11:01.500Z,16.60
2019-05-10T01:13:39.060Z,16.60
2019-05-10T01:16:16.735Z,16.70
2019-05-10T01:18:54.289Z,16.30
2019-05-10T01:21:32.034Z,16.40
2019-05-10T01:24:09.687Z,16.50
2019-05-10T01:26:47.260Z,16.50
2019-05-10T01:32:03.946Z,16.60
2019-05-10T01:37:29.579Z,16.60
2019-05-10T01:45:25.092Z,16.60
2019-05-10T01:50:40.080Z,16.70
2019-05-10T01:56:00.396Z,16.50
2019-05-10T01:58:44.780Z,16.00
2019-05-10T02:01:41.639Z,16.20
2019-05-10T02:04:20.537Z,16.20
2019-05-10T02:07:03.016Z,16.40
2019-05-10T02:09:40.628Z,16.30
2019-05-10T02:12:18.220Z,16.10
2019-05-10T02:14:55.888Z,16.50
2019-05-10T02:17:33.902Z,16.20
2019-05-10T02:20:13.571Z,16.90
2019-05-10T02:25:26.207Z,16.50
2019-05-10T02:28:03.808Z,16.30
2019-05-10T02:30:49.781Z,16.10
2019-05-10T02:33:27.327Z,16.20
2019-05-10T02:36:07.284Z,16.40
2019-05-10T02:38:46.519Z,16.50
2019-05-10T02:41:24.318Z,16.70
2019-05-10T02:51:51.794Z,17.30
2019-05-10T02:54:29.786Z,16.80
2019-05-10T02:57:08.473Z,16.80
2019-05-10T02:59:50.579Z,16.80
2019-05-10T03:02:29.291Z,16.50
2019-05-10T03:05:09.787Z,16.90
2019-05-10T03:07:49.852Z,17.00
2019-05-10T03:10:27.422Z,17.00
2019-05-10T03:13:08.224Z,17.10
2019-05-10T03:15:46.444Z,17.30
2019-05-10T03:18:27.693Z,17.10
2019-05-10T03:21:08.961Z,17.10
2019-05-10T03:23:51.087Z,17.40
2019-05-10T03:29:03.915Z,17.40
2019-05-10T03:31:43.335Z,17.20
2019-05-10T03:34:22.573Z,17.20
2019-05-10T03:37:02.534Z,17.10
2019-05-10T03:39:40.823Z,17.30
2019-05-10T03:42:19.133Z,17.10
2019-05-10T03:45:00.219Z,17.00
2019-05-10T03:47:40.241Z,17.20
2019-05-10T03:50:19.289Z,17.30
2019-05-10T03:52:59.228Z,17.30
2019-05-10T03:55:38.802Z,17.50
2019-05-10T03:58:16.437Z,17.40
2019-05-10T04:00:54.401Z,17.30
2019-05-10T04:03:32.932Z,17.40
2019-05-10T04:06:12.191Z,17.40
2019-05-10T04:08:49.975Z,17.30
2019-05-10T04:11:30.157Z,17.60
2019-05-10T04:14:10.025Z,17.40
2019-05-10T04:16:47.841Z,17.40
2019-05-10T04:19:27.043Z,17.30
2019-05-10T04:22:06.323Z,17.50
2019-05-10T04:24:45.594Z,17.50
2019-05-10T04:27:31.955Z,17.60
2019-05-10T04:30:08.173Z,18.00
2019-05-10T04:32:47.237Z,18.60
2019-05-10T04:35:26.222Z,18.90
2019-05-10T04:45:50.426Z,17.20
2019-05-10T04:51:05.484Z,19.30
2019-05-10T04:53:43.272Z,19.30
2019-05-10T04:56:20.989Z,20.00
2019-05-10T04:58:58.719Z,20.10
2019-05-10T05:04:12.718Z,19.70
2019-05-10T05:06:50.292Z,19.90
2019-05-10T05:09:28.095Z,19.40
2019-05-10T05:12:06.296Z,19.40
2019-05-10T05:14:45.150Z,19.50
2019-05-10T05:17:22.909Z,19.70
2019-05-10T05:20:00.624Z,20.20
2019-05-10T05:22:38.215Z,20.40
2019-05-10T05:25:16.613Z,20.40
2019-05-10T05:28:07.518Z,20.20
2019-05-10T05:30:33.263Z,19.90
2019-05-10T05:33:10.884Z,19.70
2019-05-10T05:35:50.516Z,20.10
2019-05-10T05:38:28.396Z,20.10
2019-05-10T05:41:05.994Z,20.40
2019-05-10T05:43:46.434Z,20.70
2019-05-10T05:46:23.806Z,20.60
2019-05-10T05:49:01.342Z,21.00
2019-05-10T05:51:38.899Z,21.10
2019-05-10T05:54:20.640Z,21.50
2019-05-10T05:56:55.263Z,21.50
2019-05-10T05:59:32.843Z,21.50
2019-05-10T06:15:54.884Z,20.10
2019-05-10T06:18:32.583Z,19.70
2019-05-10T06:21:11.743Z,19.50
2019-05-10T06:23:50.711Z,19.70
2019-05-10T06:26:28.761Z,20.00
2019-05-10T06:29:16.245Z,19.90
2019-05-10T06:31:45.198Z,19.70
2019-05-10T06:34:22.716Z,19.50
2019-05-10T06:37:01.685Z,19.10
2019-05-10T06:39:39.564Z,18.90
2019-05-10T06:42:17.607Z,18.80
2019-05-10T06:44:55.160Z,18.70
2019-05-10T06:47:32.755Z,18.20
2019-05-10T06:50:10.676Z,18.60
2019-05-10T06:52:51.756Z,18.60
2019-05-10T06:55:28.452Z,18.50
2019-05-10T06:58:06.107Z,18.30
2019-05-10T07:00:47.353Z,18.40
2019-05-10T07:03:39.877Z,18.40
2019-05-10T07:08:57.834Z,17.80
2019-05-10T07:11:32.796Z,17.80
2019-05-10T07:14:10.909Z,18.20
2019-05-10T07:19:23.594Z,17.90
2019-05-10T07:22:02.861Z,17.80
2019-05-10T07:24:45.902Z,18.70
2019-05-10T07:27:23.706Z,17.60
2019-05-10T07:30:05.234Z,17.70
2019-05-10T07:32:42.789Z,17.60
2019-05-10T07:35:20.740Z,17.60
2019-05-10T07:38:00.304Z,17.50
2019-05-10T07:40:37.941Z,17.50
2019-05-10T07:43:24.673Z,17.40
2019-05-10T07:45:58.806Z,17.30
2019-05-10T07:48:33.231Z,17.30
2019-05-10T07:51:12.898Z,17.40
2019-05-10T07:53:56.813Z,17.20
2019-05-10T07:56:30.603Z,17.10
2019-05-10T08:01:43.475Z,17.10
2019-05-10T08:04:31.421Z,17.30
2019-05-10T08:07:07.173Z,17.00
2019-05-10T08:09:45.218Z,16.90
2019-05-10T08:12:23.025Z,16.90
2019-05-10T08:15:00.950Z,16.80
2019-05-10T08:17:43.287Z,17.00
2019-05-10T08:20:30.673Z,16.90
2019-05-10T08:22:57.836Z,17.00
2019-05-10T08:25:40.572Z,16.50
2019-05-10T08:28:14.241Z,16.60
2019-05-10T08:30:58.421Z,16.50
2019-05-10T08:33:32.772Z,16.30
2019-05-10T08:36:12.102Z,16.10
2019-05-10T08:39:03.101Z,16.10
2019-05-10T08:41:32.409Z,16.10
2019-05-10T08:44:19.111Z,15.80
2019-05-10T08:46:55.068Z,15.90
2019-05-10T08:49:43.789Z,16.00
2019-05-10T08:52:13.778Z,15.20
2019-05-10T09:00:08.879Z,15.40
2019-05-10T09:02:42.959Z,15.30
2019-05-10T09:05:28.603Z,15.00
2019-05-10T09:08:05.422Z,15.30
2019-05-10T09:10:42.180Z,15.10
2019-05-10T09:13:22.899Z,14.90
2019-05-10T09:16:02.455Z,15.10
2019-05-10T09:18:46.697Z,15.00
2019-05-10T09:21:18.508Z,15.20
2019-05-10T09:24:01.472Z,15.00
2019-05-10T09:26:34.935Z,15.10
2019-05-10T09:29:12.556Z,14.70
2019-05-10T09:31:51.255Z,14.70
2019-05-10T09:37:08.164Z,15.10
2019-05-10T09:42:26.427Z,14.50
2019-05-10T09:45:02.898Z,14.50
2019-05-10T09:47:39.696Z,14.60
2019-05-10T09:50:22.762Z,14.60
2019-05-10T09:52:59.031Z,15.10
2019-05-10T09:55:37.443Z,14.30
2019-05-10T10:03:30.069Z,14.30
2019-05-10T10:06:11.372Z,14.60
2019-05-10T10:08:51.159Z,14.50
2019-05-10T10:11:31.895Z,14.40
2019-05-10T10:14:11.052Z,14.40
2019-05-10T10:19:27.636Z,14.40
2019-05-10T10:22:11.078Z,14.40
2019-05-10T10:24:49.054Z,14.50
2019-05-10T10:30:06.524Z,13.80
2019-05-10T10:32:47.717Z,14.10
2019-05-10T10:35:29.721Z,13.90
2019-05-10T10:38:08.627Z,14.10
2019-05-10T10:40:46.885Z,14.20
2019-05-10T10:43:27.232Z,13.80
2019-05-10T10:48:43.500Z,13.80
2019-05-10T10:51:26.699Z,14.50
2019-05-10T10:54:02.144Z,14.10
2019-05-10T10:59:18.287Z,14.00
2019-05-10T11:02:25.344Z,14.00
2019-05-10T11:04:40.750Z,14.10
2019-05-10T11:07:17.402Z,14.00
2019-05-10T11:10:07.419Z,14.00
2019-05-10T11:12:34.074Z,13.80
2019-05-10T11:15:16.572Z,13.70
2019-05-10T11:17:55.924Z,14.10
2019-05-10T11:20:34.940Z,14.10
2019-05-10T11:23:16.340Z,13.60
2019-05-10T11:25:56.577Z,13.80
2019-05-10T11:28:44.143Z,14.50
2019-05-10T11:36:34.945Z,13.40
2019-05-10T11:42:05.170Z,14.00
2019-05-10T11:47:25.926Z,13.60
2019-05-10T11:50:06.040Z,13.40
2019-05-10T11:52:51.291Z,13.60
2019-05-10T11:55:30.985Z,13.60
2019-05-10T11:58:12.167Z,13.90
2019-05-10T12:00:59.228Z,13.40
2019-05-10T12:11:43.704Z,13.00
2019-05-10T12:14:17.078Z,13.50
2019-05-10T12:19:36.695Z,13.20
2019-05-10T12:25:06.080Z,13.90
2019-05-10T12:27:41.788Z,13.60
2019-05-10T12:30:15.942Z,13.20
2019-05-10T12:32:57.205Z,13.00
2019-05-10T12:35:39.121Z,13.20
2019-05-10T12:40:51.188Z,13.30
2019-05-10T12:43:31.201Z,13.00
2019-05-10T12:46:10.525Z,13.10
2019-05-10T12:48:47.797Z,12.70
2019-05-10T12:51:26.622Z,12.80
2019-05-10T12:54:04.560Z,13.10
2019-05-10T12:56:44.245Z,13.00
2019-05-10T12:59:29.525Z,13.00
2019-05-10T13:04:41.125Z,13.30
2019-05-10T13:07:20.810Z,12.60
2019-05-10T13:15:12.551Z,13.20
2019-05-10T13:17:51.232Z,12.90
2019-05-10T13:23:10.038Z,13.00
2019-05-10T13:25:49.952Z,12.80
2019-05-10T13:28:29.766Z,12.80
2019-05-10T13:31:09.450Z,12.70
2019-05-10T13:33:47.064Z,12.50
2019-05-10T13:36:24.843Z,12.30
2019-05-10T13:39:03.562Z,12.90
2019-05-10T13:41:42.059Z,12.90
2019-05-10T13:44:19.657Z,13.10
2019-05-10T13:46:57.304Z,12.40
2019-05-10T13:49:34.982Z,13.10
2019-05-10T13:52:12.818Z,12.50
2019-05-10T13:54:53.317Z,12.70
2019-05-10T13:57:32.796Z,13.00
2019-05-10T14:00:11.315Z,12.50
2019-05-10T14:10:37.060Z,12.80
2019-05-10T14:15:53.984Z,12.60
2019-05-10T14:18:33.144Z,12.50
2019-05-10T14:21:10.697Z,12.70
2019-05-10T14:23:49.913Z,12.70
2019-05-10T14:26:28.841Z,12.70
2019-05-10T14:29:06.915Z,12.60
2019-05-10T14:31:45.843Z,12.70
2019-05-10T14:34:23.574Z,12.20
2019-05-10T14:37:01.075Z,12.10
2019-05-10T14:42:16.689Z,12.50
2019-05-10T14:47:30.983Z,12.10
2019-05-10T14:50:08.863Z,12.50
2019-05-10T14:52:47.757Z,12.60
2019-05-10T14:55:27.887Z,12.60
2019-05-10T14:58:05.837Z,12.70
2019-05-10T15:00:45.947Z,12.40
2019-05-10T15:03:23.567Z,12.70
2019-05-10T15:06:02.732Z,12.70
2019-05-10T15:08:43.817Z,12.50
2019-05-10T15:11:26.369Z,13.00
2019-05-10T15:14:02.496Z,12.10
2019-05-10T15:16:40.696Z,12.00
2019-05-10T15:19:18.357Z,11.90
2019-05-10T15:21:56.398Z,12.50
2019-05-10T15:29:45.391Z,12.40
2019-05-10T15:35:06.485Z,12.00
2019-05-10T15:37:40.692Z,12.00
2019-05-10T15:40:16.479Z,12.10
2019-05-10T15:42:54.613Z,12.10
2019-05-10T15:45:32.141Z,12.10
2019-05-10T15:48:12.067Z,11.70
2019-05-10T15:50:49.646Z,11.90
2019-05-10T15:53:29.401Z,11.60
2019-05-10T15:56:08.947Z,12.10
2019-05-10T15:58:49.242Z,11.70
2019-05-10T16:01:28.986Z,12.40
2019-05-10T16:04:09.827Z,11.80
2019-05-10T16:06:49.328Z,11.40
2019-05-10T16:09:27.130Z,11.80
2019-05-10T16:14:45.421Z,12.00
2019-05-10T16:20:01.160Z,12.00
2019-05-10T16:22:41.689Z,11.90
2019-05-10T16:25:20.670Z,11.70
2019-05-10T16:27:59.885Z,11.60
2019-05-10T16:30:37.790Z,11.40
2019-05-10T16:33:15.987Z,11.70
2019-05-10T16:35:54.388Z,11.80
2019-05-10T16:41:06.972Z,11.90
2019-05-10T16:43:44.516Z,12.10
2019-05-10T16:49:00.690Z,11.90
2019-05-10T16:51:42.305Z,12.30
2019-05-10T16:54:24.197Z,12.00
2019-05-10T16:56:59.895Z,11.50
2019-05-10T17:02:18.049Z,11.60
2019-05-10T17:05:00.664Z,12.00
2019-05-10T17:07:39.885Z,12.60
2019-05-10T17:10:17.677Z,11.90
2019-05-10T17:12:59.575Z,12.00
2019-05-10T17:15:39.737Z,11.60
2019-05-10T17:18:17.436Z,12.20
2019-05-10T17:20:52.867Z,11.80
2019-05-10T17:26:05.970Z,11.60
2019-05-10T17:28:45.128Z,11.90
2019-05-10T17:31:23.917Z,11.90
2019-05-10T17:36:36.472Z,11.50
2019-05-10T17:39:16.470Z,11.90
2019-05-10T17:41:57.754Z,11.60
2019-05-10T17:47:12.979Z,11.50
2019-05-10T17:49:54.344Z,12.50
2019-05-10T17:55:16.707Z,11.60
2019-05-10T17:57:54.729Z,11.70
2019-05-10T18:03:40.893Z,11.60
2019-05-10T18:06:24.115Z,11.70
2019-05-10T18:08:58.871Z,11.60
2019-05-10T18:11:36.906Z,11.40
2019-05-10T18:14:17.837Z,11.70
2019-05-10T18:19:29.349Z,11.60
2019-05-10T18:22:08.575Z,12.00
2019-05-10T18:24:46.095Z,11.40
2019-05-10T18:27:24.971Z,11.40
2019-05-10T18:30:02.656Z,11.30
2019-05-10T18:32:40.314Z,11.90
2019-05-10T18:37:59.584Z,10.50
2019-05-10T18:43:14.595Z,11.70
2019-05-10T18:45:52.364Z,12.20
2019-05-10T18:51:07.032Z,11.70
2019-05-10T18:53:48.373Z,11.70
2019-05-10T18:56:31.146Z,11.90
2019-05-10T18:59:07.493Z,11.70
2019-05-10T19:04:22.058Z,11.80
2019-05-10T19:07:09.320Z,11.50
2019-05-10T19:09:40.908Z,12.00
2019-05-10T19:12:21.394Z,11.90
2019-05-10T19:15:02.180Z,11.90
2019-05-10T19:17:40.275Z,11.60
2019-05-10T19:20:16.362Z,12.00
2019-05-10T19:22:57.684Z,12.00
2019-05-10T19:25:37.767Z,12.00
2019-05-10T19:28:15.344Z,11.70
2019-05-10T19:30:58.681Z,11.60
2019-05-10T19:33:38.067Z,11.80
2019-05-10T19:36:16.811Z,11.80
2019-05-10T19:38:56.402Z,12.20
2019-05-10T19:41:33.990Z,12.90
2019-05-10T19:44:12.886Z,12.20
2019-05-10T19:46:52.395Z,12.20
2019-05-10T19:49:29.913Z,12.40
2019-05-10T19:52:08.687Z,12.70
2019-05-10T19:54:47.826Z,12.00
2019-05-10T19:57:26.678Z,12.30
2019-05-10T20:00:05.871Z,12.50
2019-05-10T20:02:45.661Z,10.60
2019-05-10T20:08:00.074Z,12.40
2019-05-10T20:10:39.274Z,12.30
2019-05-10T20:15:54.789Z,12.60
2019-05-10T20:18:34.260Z,12.20
2019-05-10T20:23:48.194Z,12.50
2019-05-10T20:26:27.428Z,12.70
2019-05-10T20:31:40.145Z,12.50
2019-05-10T20:34:19.097Z,12.10
2019-05-10T20:36:56.749Z,12.60
2019-05-10T20:39:34.320Z,12.40
2019-05-10T20:42:13.120Z,12.40
2019-05-10T20:45:06.223Z,12.60
2019-05-10T20:50:05.968Z,12.50
2019-05-10T20:52:43.470Z,12.20
2019-05-10T20:55:21.488Z,12.40
2019-05-10T20:58:00.483Z,12.50
2019-05-10T21:00:38.108Z,12.10
2019-05-10T21:03:17.597Z,12.00
2019-05-10T21:05:56.371Z,12.40
2019-05-10T21:08:39.145Z,12.20
2019-05-10T21:11:18.412Z,12.80
2019-05-10T21:13:59.167Z,13.10
2019-05-10T21:16:36.880Z,12.20
2019-05-10T21:19:14.421Z,12.50
2019-05-10T21:21:53.987Z,13.10
2019-05-10T21:24:33.441Z,12.40
2019-05-10T21:27:12.475Z,12.80
2019-05-10T21:32:26.674Z,12.60
2019-05-10T21:35:04.233Z,12.90
2019-05-10T21:37:43.655Z,13.10
2019-05-10T21:40:23.028Z,12.60
2019-05-10T21:43:00.607Z,12.80
2019-05-10T21:45:39.542Z,13.10
2019-05-10T21:48:17.320Z,13.00
2019-05-10T21:50:54.954Z,13.00
2019-05-10T21:53:34.160Z,13.10
2019-05-10T21:56:16.946Z,13.20
2019-05-10T21:58:56.307Z,13.30
2019-05-10T22:06:47.445Z,13.60
2019-05-10T22:09:31.442Z,13.70
2019-05-10T22:19:54.444Z,14.10
2019-05-10T22:22:32.121Z,14.00
2019-05-10T22:25:10.171Z,14.00
2019-05-10T22:30:25.477Z,14.10
2019-05-10T22:33:03.096Z,13.70
2019-05-10T22:35:42.039Z,14.10
2019-05-10T22:38:19.602Z,14.20
2019-05-10T22:40:57.177Z,14.10
2019-05-10T22:43:34.764Z,14.40
2019-05-10T22:46:16.065Z,14.40
2019-05-10T22:48:55.684Z,14.50
2019-05-10T22:51:34.884Z,14.60
2019-05-10T22:54:12.598Z,14.60
2019-05-10T22:56:51.491Z,14.80
2019-05-10T22:59:31.352Z,15.00
2019-05-10T23:04:45.854Z,15.20
2019-05-10T23:07:24.398Z,15.30
2019-05-10T23:10:02.034Z,15.60
2019-05-10T23:12:39.776Z,15.40
2019-05-10T23:15:19.260Z,15.40
2019-05-10T23:17:56.824Z,15.70
2019-05-10T23:20:34.492Z,15.70
2019-05-10T23:23:14.141Z,15.80
2019-05-10T23:25:51.916Z,15.70
2019-05-10T23:28:29.712Z,15.80
2019-05-10T23:31:08.659Z,15.90
2019-05-10T23:33:46.326Z,15.70
2019-05-10T23:36:25.200Z,15.90
2019-05-10T23:39:05.463Z,16.00
2019-05-10T23:41:42.986Z,15.90
2019-05-10T23:44:22.564Z,16.00
2019-05-10T23:47:01.386Z,16.10
2019-05-10T23:49:40.601Z,16.20
2019-05-10T23:52:21.572Z,16.20
2019-05-10T23:55:00.381Z,16.50
2019-05-10T23:57:39.861Z,16.30
